createdAt,value
2022-10-17T00:03:06.113Z,967.81
2022-10-17T00:18:08.426Z,967.8
2022-10-17T00:33:10.765Z,967.81
2022-10-17T00:48:13.063Z,967.8
2022-10-17T01:03:15.367Z,967.98
2022-10-17T01:18:17.810Z,968.12
2022-10-17T01:33:20.196Z,968.24
2022-10-17T01:48:22.530Z,968.32
2022-10-17T02:03:24.817Z,968.46
2022-10-17T02:18:27.067Z,968.51
2022-10-17T02:33:29.479Z,968.63
2022-10-17T02:48:31.810Z,968.84
2022-10-17T03:03:34.131Z,968.89
2022-10-17T03:18:36.455Z,968.98
2022-10-17T03:33:38.769Z,969.01
2022-10-17T03:48:41.071Z,969.11
2022-10-17T04:03:43.558Z,969.38
2022-10-17T04:18:45.900Z,969.53
2022-10-17T04:33:48.177Z,969.55
2022-10-17T04:48:50.780Z,969.54
2022-10-17T05:03:53.110Z,969.54
2022-10-17T05:18:55.375Z,969.67
2022-10-17T05:33:57.670Z,969.71
2022-10-17T05:48:59.945Z,969.67
2022-10-17T06:04:02.249Z,969.86
2022-10-17T06:19:04.566Z,970.05
2022-10-17T06:34:06.857Z,970.06
2022-10-17T06:49:09.160Z,970.13
2022-10-17T07:04:11.478Z,970.17
2022-10-17T07:19:13.774Z,970.22
2022-10-17T07:34:16.125Z,970.36
2022-10-17T07:49:18.473Z,970.33
2022-10-17T08:04:20.764Z,970.43
2022-10-17T08:19:23.141Z,970.48
2022-10-17T08:34:25.418Z,970.58
2022-10-17T08:49:27.751Z,970.59
2022-10-17T09:19:32.493Z,970.63
2022-10-17T09:34:34.775Z,970.6
2022-10-17T09:49:37.012Z,970.62
2022-10-17T10:04:59.786Z,970.62
2022-10-17T10:20:05.480Z,970.62
2022-10-17T10:35:07.764Z,970.61
2022-10-17T10:50:10.058Z,970.72
2022-10-17T11:05:12.393Z,970.82
2022-10-17T11:20:14.716Z,970.92
2022-10-17T11:35:17.220Z,971.05
2022-10-17T12:05:51.866Z,971.14
2022-10-17T12:20:54.363Z,971.16
2022-10-17T12:35:56.664Z,971.24
2022-10-17T12:51:17.665Z,971.23
2022-10-17T13:06:33.564Z,971.26
2022-10-17T13:21:35.898Z,971.34
2022-10-17T13:36:38.201Z,971.39
2022-10-17T13:51:40.526Z,971.52
2022-10-17T14:06:44.983Z,971.69
2022-10-17T14:21:50.443Z,971.92
2022-10-17T14:36:52.743Z,972.05
2022-10-17T14:51:57.002Z,972.1
2022-10-17T15:07:09.576Z,972.17
2022-10-17T15:22:11.902Z,972.16
2022-10-17T15:37:14.153Z,972.11
2022-10-17T15:52:16.486Z,972
2022-10-17T16:07:18.825Z,972.13
2022-10-17T16:22:21.126Z,969.5
2022-10-17T16:37:23.642Z,971.2
2022-10-17T16:52:25.941Z,971.93
2022-10-17T17:07:28.600Z,972.26
2022-10-17T17:22:31.031Z,971.57
2022-10-17T17:37:33.501Z,971.42
2022-10-17T17:52:36.136Z,971.24
2022-10-17T18:07:38.398Z,971.07
2022-10-17T18:22:40.676Z,970.85
2022-10-17T18:37:43.029Z,970.66
2022-10-17T18:52:45.325Z,970.55
2022-10-17T19:07:47.615Z,970.33
2022-10-17T19:22:50.037Z,970.07
2022-10-17T19:37:52.422Z,969.87
2022-10-17T19:52:54.681Z,969.72
2022-10-17T20:07:57.007Z,969.48
2022-10-17T20:22:59.314Z,969.21
2022-10-17T20:38:01.619Z,968.94
2022-10-17T20:53:31.299Z,968.69
2022-10-17T21:08:37.761Z,968.43
2022-10-17T21:23:40.058Z,968.24
2022-10-17T21:38:42.331Z,968.09
2022-10-17T21:53:44.625Z,967.92
2022-10-17T22:08:47.071Z,967.77
2022-10-17T22:23:49.335Z,967.71
2022-10-17T22:38:51.653Z,967.58
2022-10-17T22:53:53.930Z,967.61
2022-10-17T23:08:56.183Z,967.6
2022-10-17T23:23:58.520Z,967.6
2022-10-17T23:39:00.998Z,967.54
2022-10-17T23:54:03.238Z,967.6
